sensor_id;sensor_type;location;lat;lon;timestamp;P1;durP1;ratioP1;P2;durP2;ratioP2
26181;SDS011;13927;51.534;11.866;2022-10-16T00:01:18;1.05;;;0.80;;
26181;SDS011;13927;51.534;11.866;2022-10-16T00:03:47;0.82;;;0.60;;
26181;SDS011;13927;51.534;11.866;2022-10-16T00:06:13;0.90;;;0.70;;
26181;SDS011;13927;51.534;11.866;2022-10-16T00:08:40;2.85;;;0.60;;
26181;SDS011;13927;51.534;11.866;2022-10-16T00:11:08;2.20;;;0.70;;
26181;SDS011;13927;51.534;11.866;2022-10-16T00:13:40;0.55;;;0.52;;
26181;SDS011;13927;51.534;11.866;2022-10-16T00:16:07;1.10;;;0.52;;
26181;SDS011;13927;51.534;11.866;2022-10-16T00:18:34;0.90;;;0.70;;
26181;SDS011;13927;51.534;11.866;2022-10-16T00:21:06;1.38;;;0.80;;
26181;SDS011;13927;51.534;11.866;2022-10-16T00:23:49;0.50;;;0.50;;
26181;SDS011;13927;51.534;11.866;2022-10-16T00:26:21;0.73;;;0.60;;
26181;SDS011;13927;51.534;11.866;2022-10-16T00:28:47;0.90;;;0.60;;
26181;SDS011;13927;51.534;11.866;2022-10-16T00:31:15;1.90;;;0.60;;
26181;SDS011;13927;51.534;11.866;2022-10-16T00:33:43;0.80;;;0.70;;
26181;SDS011;13927;51.534;11.866;2022-10-16T00:36:10;1.13;;;0.50;;
26181;SDS011;13927;51.534;11.866;2022-10-16T00:38:39;0.82;;;0.50;;
26181;SDS011;13927;51.534;11.866;2022-10-16T00:41:06;0.70;;;0.60;;
26181;SDS011;13927;51.534;11.866;2022-10-16T00:43:37;1.98;;;0.80;;
26181;SDS011;13927;51.534;11.866;2022-10-16T00:48:52;0.77;;;0.60;;
26181;SDS011;13927;51.534;11.866;2022-10-16T00:51:32;1.30;;;0.57;;
26181;SDS011;13927;51.534;11.866;2022-10-16T00:54:06;1.38;;;0.50;;
26181;SDS011;13927;51.534;11.866;2022-10-16T00:56:41;1.10;;;0.60;;
26181;SDS011;13927;51.534;11.866;2022-10-16T00:59:11;0.60;;;0.60;;
26181;SDS011;13927;51.534;11.866;2022-10-16T01:01:43;0.63;;;0.60;;
26181;SDS011;13927;51.534;11.866;2022-10-16T01:04:08;2.08;;;1.20;;
26181;SDS011;13927;51.534;11.866;2022-10-16T01:28:54;1.73;;;1.00;;
26181;SDS011;13927;51.534;11.866;2022-10-16T01:31:31;2.10;;;1.05;;
26181;SDS011;13927;51.534;11.866;2022-10-16T01:34:02;1.25;;;1.15;;
26181;SDS011;13927;51.534;11.866;2022-10-16T01:36:51;1.77;;;1.42;;
26181;SDS011;13927;51.534;11.866;2022-10-16T01:39:26;1.60;;;1.20;;
26181;SDS011;13927;51.534;11.866;2022-10-16T01:42:15;2.08;;;0.82;;
26181;SDS011;13927;51.534;11.866;2022-10-16T01:44:49;1.35;;;0.95;;
26181;SDS011;13927;51.534;11.866;2022-10-16T01:47:18;1.10;;;1.00;;
26181;SDS011;13927;51.534;11.866;2022-10-16T01:49:47;2.08;;;1.00;;
26181;SDS011;13927;51.534;11.866;2022-10-16T01:52:15;1.13;;;0.80;;
26181;SDS011;13927;51.534;11.866;2022-10-16T01:54:46;1.02;;;0.93;;
26181;SDS011;13927;51.534;11.866;2022-10-16T01:57:15;0.75;;;0.75;;
26181;SDS011;13927;51.534;11.866;2022-10-16T01:59:44;1.58;;;0.90;;
26181;SDS011;13927;51.534;11.866;2022-10-16T02:02:13;1.77;;;1.10;;
26181;SDS011;13927;51.534;11.866;2022-10-16T02:04:45;1.10;;;1.00;;
26181;SDS011;13927;51.534;11.866;2022-10-16T02:07:14;2.25;;;1.00;;
26181;SDS011;13927;51.534;11.866;2022-10-16T02:09:41;3.00;;;1.08;;
26181;SDS011;13927;51.534;11.866;2022-10-16T02:12:26;2.15;;;1.30;;
26181;SDS011;13927;51.534;11.866;2022-10-16T02:14:57;1.10;;;1.00;;
26181;SDS011;13927;51.534;11.866;2022-10-16T02:17:23;1.27;;;1.00;;
26181;SDS011;13927;51.534;11.866;2022-10-16T02:19:50;2.30;;;1.63;;
26181;SDS011;13927;51.534;11.866;2022-10-16T02:22:23;2.75;;;1.67;;
26181;SDS011;13927;51.534;11.866;2022-10-16T02:25:08;2.08;;;1.30;;
26181;SDS011;13927;51.534;11.866;2022-10-16T02:27:53;3.45;;;1.20;;
26181;SDS011;13927;51.534;11.866;2022-10-16T02:30:30;1.67;;;1.13;;
26181;SDS011;13927;51.534;11.866;2022-10-16T02:33:09;1.85;;;1.15;;
26181;SDS011;13927;51.534;11.866;2022-10-16T02:35:38;1.67;;;1.10;;
26181;SDS011;13927;51.534;11.866;2022-10-16T02:38:05;1.60;;;1.10;;
26181;SDS011;13927;51.534;11.866;2022-10-16T02:40:33;1.30;;;1.10;;
26181;SDS011;13927;51.534;11.866;2022-10-16T02:42:59;2.45;;;1.02;;
26181;SDS011;13927;51.534;11.866;2022-10-16T02:45:24;1.23;;;1.00;;
26181;SDS011;13927;51.534;11.866;2022-10-16T02:47:51;1.50;;;1.15;;
26181;SDS011;13927;51.534;11.866;2022-10-16T02:50:17;2.03;;;0.90;;
26181;SDS011;13927;51.534;11.866;2022-10-16T02:52:42;1.65;;;1.00;;
26181;SDS011;13927;51.534;11.866;2022-10-16T02:55:08;1.15;;;1.02;;
26181;SDS011;13927;51.534;11.866;2022-10-16T02:57:34;2.45;;;1.27;;
26181;SDS011;13927;51.534;11.866;2022-10-16T03:00:02;2.20;;;1.23;;
26181;SDS011;13927;51.534;11.866;2022-10-16T03:02:33;1.50;;;1.08;;
26181;SDS011;13927;51.534;11.866;2022-10-16T03:04:59;1.30;;;1.00;;
26181;SDS011;13927;51.534;11.866;2022-10-16T03:07:25;1.40;;;1.30;;
26181;SDS011;13927;51.534;11.866;2022-10-16T03:09:51;1.80;;;1.00;;
26181;SDS011;13927;51.534;11.866;2022-10-16T03:12:16;1.13;;;0.90;;
26181;SDS011;13927;51.534;11.866;2022-10-16T03:14:42;1.30;;;0.90;;
26181;SDS011;13927;51.534;11.866;2022-10-16T03:17:08;1.75;;;1.20;;
26181;SDS011;13927;51.534;11.866;2022-10-16T03:19:34;1.70;;;1.30;;
26181;SDS011;13927;51.534;11.866;2022-10-16T03:22:00;1.52;;;1.20;;
26181;SDS011;13927;51.534;11.866;2022-10-16T03:24:26;1.60;;;1.20;;
26181;SDS011;13927;51.534;11.866;2022-10-16T03:26:52;1.70;;;1.10;;
26181;SDS011;13927;51.534;11.866;2022-10-16T03:29:18;1.67;;;1.30;;
26181;SDS011;13927;51.534;11.866;2022-10-16T03:31:44;2.03;;;1.45;;
26181;SDS011;13927;51.534;11.866;2022-10-16T03:34:09;1.30;;;1.10;;
26181;SDS011;13927;51.534;11.866;2022-10-16T03:36:35;1.40;;;1.00;;
26181;SDS011;13927;51.534;11.866;2022-10-16T03:39:01;1.38;;;1.00;;
26181;SDS011;13927;51.534;11.866;2022-10-16T03:41:27;1.20;;;1.00;;
26181;SDS011;13927;51.534;11.866;2022-10-16T03:43:53;1.73;;;1.20;;
26181;SDS011;13927;51.534;11.866;2022-10-16T03:46:18;1.60;;;1.20;;
26181;SDS011;13927;51.534;11.866;2022-10-16T03:48:44;2.80;;;1.35;;
26181;SDS011;13927;51.534;11.866;2022-10-16T03:51:10;2.20;;;1.58;;
26181;SDS011;13927;51.534;11.866;2022-10-16T03:53:35;1.45;;;1.35;;
26181;SDS011;13927;51.534;11.866;2022-10-16T03:56:01;2.50;;;1.88;;
26181;SDS011;13927;51.534;11.866;2022-10-16T03:58:27;2.58;;;1.67;;
26181;SDS011;13927;51.534;11.866;2022-10-16T04:00:53;2.97;;;1.70;;
26181;SDS011;13927;51.534;11.866;2022-10-16T04:03:19;2.72;;;1.70;;
26181;SDS011;13927;51.534;11.866;2022-10-16T04:05:44;1.90;;;1.45;;
26181;SDS011;13927;51.534;11.866;2022-10-16T04:08:10;2.78;;;2.45;;
26181;SDS011;13927;51.534;11.866;2022-10-16T04:10:36;4.65;;;4.20;;
26181;SDS011;13927;51.534;11.866;2022-10-16T04:13:01;2.58;;;2.38;;
26181;SDS011;13927;51.534;11.866;2022-10-16T04:15:27;2.70;;;2.17;;
26181;SDS011;13927;51.534;11.866;2022-10-16T04:17:53;3.67;;;2.67;;
26181;SDS011;13927;51.534;11.866;2022-10-16T04:20:19;2.20;;;1.92;;
26181;SDS011;13927;51.534;11.866;2022-10-16T04:22:45;4.18;;;1.88;;
26181;SDS011;13927;51.534;11.866;2022-10-16T04:25:11;1.80;;;1.55;;
26181;SDS011;13927;51.534;11.866;2022-10-16T04:27:37;2.53;;;1.92;;
26181;SDS011;13927;51.534;11.866;2022-10-16T04:30:04;2.25;;;1.63;;
26181;SDS011;13927;51.534;11.866;2022-10-16T04:32:30;2.50;;;1.95;;
26181;SDS011;13927;51.534;11.866;2022-10-16T04:34:56;3.80;;;2.00;;
26181;SDS011;13927;51.534;11.866;2022-10-16T04:37:25;2.50;;;2.08;;
26181;SDS011;13927;51.534;11.866;2022-10-16T04:39:52;2.03;;;1.77;;
26181;SDS011;13927;51.534;11.866;2022-10-16T04:42:18;2.55;;;1.90;;
26181;SDS011;13927;51.534;11.866;2022-10-16T04:44:44;2.35;;;2.03;;
26181;SDS011;13927;51.534;11.866;2022-10-16T04:47:10;5.60;;;2.20;;
26181;SDS011;13927;51.534;11.866;2022-10-16T04:49:36;2.40;;;1.98;;
26181;SDS011;13927;51.534;11.866;2022-10-16T04:52:02;3.20;;;1.90;;
26181;SDS011;13927;51.534;11.866;2022-10-16T04:54:28;2.63;;;1.98;;
26181;SDS011;13927;51.534;11.866;2022-10-16T04:56:54;7.97;;;5.85;;
26181;SDS011;13927;51.534;11.866;2022-10-16T04:59:20;2.63;;;2.20;;
26181;SDS011;13927;51.534;11.866;2022-10-16T05:01:47;2.13;;;1.60;;
26181;SDS011;13927;51.534;11.866;2022-10-16T05:04:13;4.70;;;3.13;;
26181;SDS011;13927;51.534;11.866;2022-10-16T05:06:40;5.25;;;4.47;;
26181;SDS011;13927;51.534;11.866;2022-10-16T05:09:06;4.45;;;3.30;;
26181;SDS011;13927;51.534;11.866;2022-10-16T05:11:33;2.75;;;2.00;;
26181;SDS011;13927;51.534;11.866;2022-10-16T05:13:59;1.45;;;1.20;;
26181;SDS011;13927;51.534;11.866;2022-10-16T05:16:25;3.05;;;1.77;;
26181;SDS011;13927;51.534;11.866;2022-10-16T05:18:51;2.67;;;1.77;;
26181;SDS011;13927;51.534;11.866;2022-10-16T05:21:17;1.75;;;1.52;;
26181;SDS011;13927;51.534;11.866;2022-10-16T05:23:45;2.15;;;1.95;;
26181;SDS011;13927;51.534;11.866;2022-10-16T05:26:11;2.05;;;1.48;;
26181;SDS011;13927;51.534;11.866;2022-10-16T05:28:36;2.25;;;1.80;;
26181;SDS011;13927;51.534;11.866;2022-10-16T05:31:06;2.22;;;1.75;;
26181;SDS011;13927;51.534;11.866;2022-10-16T05:33:33;3.22;;;2.33;;
26181;SDS011;13927;51.534;11.866;2022-10-16T05:36:06;2.38;;;2.17;;
26181;SDS011;13927;51.534;11.866;2022-10-16T05:38:34;3.58;;;1.95;;
26181;SDS011;13927;51.534;11.866;2022-10-16T05:41:00;4.75;;;2.45;;
26181;SDS011;13927;51.534;11.866;2022-10-16T05:43:27;3.15;;;2.30;;
26181;SDS011;13927;51.534;11.866;2022-10-16T05:45:58;2.50;;;2.30;;
26181;SDS011;13927;51.534;11.866;2022-10-16T05:48:28;2.13;;;1.83;;
26181;SDS011;13927;51.534;11.866;2022-10-16T05:51:02;2.60;;;2.05;;
26181;SDS011;13927;51.534;11.866;2022-10-16T05:53:35;2.92;;;1.75;;
26181;SDS011;13927;51.534;11.866;2022-10-16T05:56:02;2.05;;;1.80;;
26181;SDS011;13927;51.534;11.866;2022-10-16T05:58:31;4.07;;;2.30;;
26181;SDS011;13927;51.534;11.866;2022-10-16T06:01:03;4.20;;;2.17;;
26181;SDS011;13927;51.534;11.866;2022-10-16T06:03:32;3.63;;;2.13;;
26181;SDS011;13927;51.534;11.866;2022-10-16T06:05:58;2.80;;;1.88;;
26181;SDS011;13927;51.534;11.866;2022-10-16T06:08:32;1.58;;;1.48;;
26181;SDS011;13927;51.534;11.866;2022-10-16T06:11:05;1.45;;;1.25;;
26181;SDS011;13927;51.534;11.866;2022-10-16T06:13:33;1.50;;;1.20;;
26181;SDS011;13927;51.534;11.866;2022-10-16T06:15:59;1.45;;;1.20;;
26181;SDS011;13927;51.534;11.866;2022-10-16T06:18:27;2.20;;;1.13;;
26181;SDS011;13927;51.534;11.866;2022-10-16T06:20:55;5.60;;;1.83;;
26181;SDS011;13927;51.534;11.866;2022-10-16T06:23:21;1.95;;;1.15;;
26181;SDS011;13927;51.534;11.866;2022-10-16T06:25:48;1.80;;;0.82;;
26181;SDS011;13927;51.534;11.866;2022-10-16T06:28:14;1.83;;;1.05;;
26181;SDS011;13927;51.534;11.866;2022-10-16T06:30:40;2.55;;;1.02;;
26181;SDS011;13927;51.534;11.866;2022-10-16T06:33:08;2.58;;;0.82;;
26181;SDS011;13927;51.534;11.866;2022-10-16T06:35:35;1.38;;;0.70;;
26181;SDS011;13927;51.534;11.866;2022-10-16T06:38:01;2.35;;;1.15;;
26181;SDS011;13927;51.534;11.866;2022-10-16T06:40:27;1.35;;;1.00;;
26181;SDS011;13927;51.534;11.866;2022-10-16T06:42:56;2.22;;;1.10;;
26181;SDS011;13927;51.534;11.866;2022-10-16T06:45:22;0.85;;;0.80;;
26181;SDS011;13927;51.534;11.866;2022-10-16T06:47:48;1.38;;;1.08;;
26181;SDS011;13927;51.534;11.866;2022-10-16T06:50:14;2.60;;;0.82;;
26181;SDS011;13927;51.534;11.866;2022-10-16T06:52:40;1.20;;;1.10;;
26181;SDS011;13927;51.534;11.866;2022-10-16T06:55:05;3.70;;;1.10;;
26181;SDS011;13927;51.534;11.866;2022-10-16T06:57:32;2.13;;;1.25;;
26181;SDS011;13927;51.534;11.866;2022-10-16T06:59:57;2.72;;;1.60;;
26181;SDS011;13927;51.534;11.866;2022-10-16T07:02:23;5.50;;;1.45;;
26181;SDS011;13927;51.534;11.866;2022-10-16T07:04:49;2.45;;;1.65;;
26181;SDS011;13927;51.534;11.866;2022-10-16T07:07:15;2.45;;;1.25;;
26181;SDS011;13927;51.534;11.866;2022-10-16T07:09:40;2.78;;;1.20;;
26181;SDS011;13927;51.534;11.866;2022-10-16T07:12:06;1.10;;;1.00;;
26181;SDS011;13927;51.534;11.866;2022-10-16T07:14:32;1.52;;;1.10;;
26181;SDS011;13927;51.534;11.866;2022-10-16T07:16:58;1.35;;;1.00;;
26181;SDS011;13927;51.534;11.866;2022-10-16T07:19:24;1.73;;;0.77;;
26181;SDS011;13927;51.534;11.866;2022-10-16T07:21:50;1.60;;;0.95;;
26181;SDS011;13927;51.534;11.866;2022-10-16T07:24:16;1.25;;;0.90;;
26181;SDS011;13927;51.534;11.866;2022-10-16T07:26:43;1.60;;;1.10;;
26181;SDS011;13927;51.534;11.866;2022-10-16T07:29:12;1.30;;;0.80;;
26181;SDS011;13927;51.534;11.866;2022-10-16T07:31:41;1.73;;;0.93;;
26181;SDS011;13927;51.534;11.866;2022-10-16T07:34:07;1.67;;;1.10;;
26181;SDS011;13927;51.534;11.866;2022-10-16T07:36:34;1.88;;;1.20;;
26181;SDS011;13927;51.534;11.866;2022-10-16T07:39:00;3.63;;;1.30;;
26181;SDS011;13927;51.534;11.866;2022-10-16T07:41:26;1.75;;;1.00;;
26181;SDS011;13927;51.534;11.866;2022-10-16T07:43:53;1.95;;;0.95;;
26181;SDS011;13927;51.534;11.866;2022-10-16T07:46:22;1.67;;;1.38;;
26181;SDS011;13927;51.534;11.866;2022-10-16T07:48:49;1.60;;;0.98;;
26181;SDS011;13927;51.534;11.866;2022-10-16T07:51:17;1.75;;;0.80;;
26181;SDS011;13927;51.534;11.866;2022-10-16T07:53:46;1.10;;;0.68;;
26181;SDS011;13927;51.534;11.866;2022-10-16T07:56:13;0.70;;;0.70;;
26181;SDS011;13927;51.534;11.866;2022-10-16T07:58:41;1.13;;;0.80;;
26181;SDS011;13927;51.534;11.866;2022-10-16T08:01:10;0.88;;;0.77;;
26181;SDS011;13927;51.534;11.866;2022-10-16T08:03:41;1.35;;;0.90;;
26181;SDS011;13927;51.534;11.866;2022-10-16T08:06:08;2.25;;;0.70;;
26181;SDS011;13927;51.534;11.866;2022-10-16T08:08:34;1.58;;;1.05;;
26181;SDS011;13927;51.534;11.866;2022-10-16T08:11:00;1.95;;;0.77;;
26181;SDS011;13927;51.534;11.866;2022-10-16T08:13:28;1.35;;;0.90;;
26181;SDS011;13927;51.534;11.866;2022-10-16T08:15:55;1.75;;;1.17;;
26181;SDS011;13927;51.534;11.866;2022-10-16T08:18:21;1.15;;;0.70;;
26181;SDS011;13927;51.534;11.866;2022-10-16T08:20:47;1.23;;;0.80;;
26181;SDS011;13927;51.534;11.866;2022-10-16T08:23:20;2.57;;;1.10;;
26181;SDS011;13927;51.534;11.866;2022-10-16T08:25:46;1.05;;;0.90;;
26181;SDS011;13927;51.534;11.866;2022-10-16T08:28:13;1.42;;;0.80;;
26181;SDS011;13927;51.534;11.866;2022-10-16T08:30:39;2.05;;;0.73;;
26181;SDS011;13927;51.534;11.866;2022-10-16T08:33:05;2.40;;;1.13;;
26181;SDS011;13927;51.534;11.866;2022-10-16T08:35:31;1.10;;;0.93;;
26181;SDS011;13927;51.534;11.866;2022-10-16T08:37:57;1.13;;;0.88;;
26181;SDS011;13927;51.534;11.866;2022-10-16T08:40:24;1.50;;;1.05;;
26181;SDS011;13927;51.534;11.866;2022-10-16T08:48:50;0.77;;;0.60;;
26181;SDS011;13927;51.534;11.866;2022-10-16T08:51:31;2.60;;;1.02;;
26181;SDS011;13927;51.534;11.866;2022-10-16T08:54:01;1.10;;;0.80;;
26181;SDS011;13927;51.534;11.866;2022-10-16T08:56:30;1.20;;;0.60;;
26181;SDS011;13927;51.534;11.866;2022-10-16T08:58:59;1.23;;;0.75;;
26181;SDS011;13927;51.534;11.866;2022-10-16T09:01:44;1.52;;;0.73;;
26181;SDS011;13927;51.534;11.866;2022-10-16T09:06:52;1.40;;;0.90;;
26181;SDS011;13927;51.534;11.866;2022-10-16T09:09:43;1.35;;;0.88;;
26181;SDS011;13927;51.534;11.866;2022-10-16T09:12:44;0.95;;;0.85;;
26181;SDS011;13927;51.534;11.866;2022-10-16T09:18:11;2.13;;;1.20;;
26181;SDS011;13927;51.534;11.866;2022-10-16T09:21:31;2.63;;;0.90;;
26181;SDS011;13927;51.534;11.866;2022-10-16T09:24:09;1.55;;;0.80;;
26181;SDS011;13927;51.534;11.866;2022-10-16T09:26:42;1.88;;;0.80;;
26181;SDS011;13927;51.534;11.866;2022-10-16T09:29:10;1.33;;;0.70;;
26181;SDS011;13927;51.534;11.866;2022-10-16T09:31:41;1.17;;;0.70;;
26181;SDS011;13927;51.534;11.866;2022-10-16T09:34:30;0.93;;;0.60;;
26181;SDS011;13927;51.534;11.866;2022-10-16T09:36:59;2.00;;;0.70;;
26181;SDS011;13927;51.534;11.866;2022-10-16T09:39:28;0.55;;;0.55;;
26181;SDS011;13927;51.534;11.866;2022-10-16T09:41:54;0.88;;;0.50;;
26181;SDS011;13927;51.534;11.866;2022-10-16T09:44:26;1.83;;;0.70;;
26181;SDS011;13927;51.534;11.866;2022-10-16T09:47:05;1.52;;;0.60;;
26181;SDS011;13927;51.534;11.866;2022-10-16T09:50:02;1.27;;;0.50;;
26181;SDS011;13927;51.534;11.866;2022-10-16T09:52:43;0.85;;;0.70;;
26181;SDS011;13927;51.534;11.866;2022-10-16T09:55:14;0.50;;;0.40;;
26181;SDS011;13927;51.534;11.866;2022-10-16T09:57:52;0.70;;;0.60;;
26181;SDS011;13927;51.534;11.866;2022-10-16T10:00:21;1.13;;;0.60;;
26181;SDS011;13927;51.534;11.866;2022-10-16T10:02:49;1.13;;;0.50;;
26181;SDS011;13927;51.534;11.866;2022-10-16T10:08:00;1.80;;;0.70;;
26181;SDS011;13927;51.534;11.866;2022-10-16T10:10:32;1.50;;;0.40;;
26181;SDS011;13927;51.534;11.866;2022-10-16T10:13:20;1.48;;;0.70;;
26181;SDS011;13927;51.534;11.866;2022-10-16T10:15:49;0.45;;;0.45;;
26181;SDS011;13927;51.534;11.866;2022-10-16T10:18:19;1.27;;;0.50;;
26181;SDS011;13927;51.534;11.866;2022-10-16T10:20:59;0.98;;;0.55;;
26181;SDS011;13927;51.534;11.866;2022-10-16T10:23:27;0.55;;;0.40;;
26181;SDS011;13927;51.534;11.866;2022-10-16T10:26:14;1.20;;;0.40;;
26181;SDS011;13927;51.534;11.866;2022-10-16T10:35:15;1.83;;;0.40;;
26181;SDS011;13927;51.534;11.866;2022-10-16T10:40:43;1.08;;;0.43;;
26181;SDS011;13927;51.534;11.866;2022-10-16T10:43:26;0.80;;;0.47;;
26181;SDS011;13927;51.534;11.866;2022-10-16T10:46:17;1.13;;;0.52;;
26181;SDS011;13927;51.534;11.866;2022-10-16T10:49:03;0.43;;;0.38;;
26181;SDS011;13927;51.534;11.866;2022-10-16T11:02:55;0.88;;;0.50;;
26181;SDS011;13927;51.534;11.866;2022-10-16T11:05:47;1.02;;;0.50;;
26181;SDS011;13927;51.534;11.866;2022-10-16T11:08:23;1.30;;;0.50;;
26181;SDS011;13927;51.534;11.866;2022-10-16T11:11:00;0.95;;;0.52;;
26181;SDS011;13927;51.534;11.866;2022-10-16T11:13:45;0.95;;;0.57;;
26181;SDS011;13927;51.534;11.866;2022-10-16T11:16:44;1.00;;;0.60;;
26181;SDS011;13927;51.534;11.866;2022-10-16T11:27:41;0.90;;;0.43;;
26181;SDS011;13927;51.534;11.866;2022-10-16T11:33:34;1.38;;;0.60;;
26181;SDS011;13927;51.534;11.866;2022-10-16T11:38:52;1.20;;;0.70;;
26181;SDS011;13927;51.534;11.866;2022-10-16T11:41:44;2.00;;;0.50;;
26181;SDS011;13927;51.534;11.866;2022-10-16T11:50:52;0.93;;;0.52;;
26181;SDS011;13927;51.534;11.866;2022-10-16T11:56:32;1.63;;;0.60;;
26181;SDS011;13927;51.534;11.866;2022-10-16T11:59:10;0.75;;;0.47;;
26181;SDS011;13927;51.534;11.866;2022-10-16T12:01:52;0.77;;;0.60;;
26181;SDS011;13927;51.534;11.866;2022-10-16T12:04:31;0.77;;;0.50;;
26181;SDS011;13927;51.534;11.866;2022-10-16T12:07:11;0.80;;;0.50;;
26181;SDS011;13927;51.534;11.866;2022-10-16T12:09:43;1.17;;;0.50;;
26181;SDS011;13927;51.534;11.866;2022-10-16T12:12:28;0.68;;;0.50;;
26181;SDS011;13927;51.534;11.866;2022-10-16T12:15:21;0.30;;;0.30;;
26181;SDS011;13927;51.534;11.866;2022-10-16T12:17:49;1.52;;;0.50;;
26181;SDS011;13927;51.534;11.866;2022-10-16T12:22:49;1.15;;;0.60;;
26181;SDS011;13927;51.534;11.866;2022-10-16T12:28:17;0.57;;;0.40;;
26181;SDS011;13927;51.534;11.866;2022-10-16T12:30:54;0.45;;;0.45;;
26181;SDS011;13927;51.534;11.866;2022-10-16T12:33:31;0.50;;;0.50;;
26181;SDS011;13927;51.534;11.866;2022-10-16T12:36:31;1.42;;;0.50;;
26181;SDS011;13927;51.534;11.866;2022-10-16T12:38:59;1.13;;;0.60;;
26181;SDS011;13927;51.534;11.866;2022-10-16T12:41:30;0.55;;;0.50;;
26181;SDS011;13927;51.534;11.866;2022-10-16T12:44:00;0.40;;;0.40;;
26181;SDS011;13927;51.534;11.866;2022-10-16T12:49:19;0.40;;;0.40;;
26181;SDS011;13927;51.534;11.866;2022-10-16T12:51:56;0.98;;;0.40;;
26181;SDS011;13927;51.534;11.866;2022-10-16T12:54:30;0.75;;;0.50;;
26181;SDS011;13927;51.534;11.866;2022-10-16T12:57:19;3.88;;;0.68;;
26181;SDS011;13927;51.534;11.866;2022-10-16T13:06:37;2.13;;;0.50;;
26181;SDS011;13927;51.534;11.866;2022-10-16T13:09:15;1.48;;;0.50;;
26181;SDS011;13927;51.534;11.866;2022-10-16T13:29:32;1.80;;;0.60;;
26181;SDS011;13927;51.534;11.866;2022-10-16T13:31:59;1.77;;;0.63;;
26181;SDS011;13927;51.534;11.866;2022-10-16T13:34:31;0.73;;;0.50;;
26181;SDS011;13927;51.534;11.866;2022-10-16T13:36:57;1.55;;;0.50;;
26181;SDS011;13927;51.534;11.866;2022-10-16T13:39:27;1.42;;;0.50;;
26181;SDS011;13927;51.534;11.866;2022-10-16T13:42:37;2.05;;;0.60;;
26181;SDS011;13927;51.534;11.866;2022-10-16T13:44:51;1.00;;;0.40;;
26181;SDS011;13927;51.534;11.866;2022-10-16T13:50:03;1.67;;;0.50;;
26181;SDS011;13927;51.534;11.866;2022-10-16T13:52:41;0.88;;;0.50;;
26181;SDS011;13927;51.534;11.866;2022-10-16T13:55:11;0.82;;;0.47;;
26181;SDS011;13927;51.534;11.866;2022-10-16T13:57:39;0.40;;;0.40;;
26181;SDS011;13927;51.534;11.866;2022-10-16T14:02:55;1.17;;;0.70;;
26181;SDS011;13927;51.534;11.866;2022-10-16T14:05:26;0.63;;;0.50;;
26181;SDS011;13927;51.534;11.866;2022-10-16T14:07:52;0.60;;;0.40;;
26181;SDS011;13927;51.534;11.866;2022-10-16T14:10:22;0.60;;;0.38;;
26181;SDS011;13927;51.534;11.866;2022-10-16T14:13:01;0.85;;;0.73;;
26181;SDS011;13927;51.534;11.866;2022-10-16T14:15:31;0.73;;;0.65;;
26181;SDS011;13927;51.534;11.866;2022-10-16T14:17:58;1.55;;;0.70;;
26181;SDS011;13927;51.534;11.866;2022-10-16T14:20:29;0.50;;;0.35;;
26181;SDS011;13927;51.534;11.866;2022-10-16T14:23:20;1.13;;;0.60;;
26181;SDS011;13927;51.534;11.866;2022-10-16T14:26:04;0.60;;;0.60;;
26181;SDS011;13927;51.534;11.866;2022-10-16T14:28:37;0.77;;;0.60;;
26181;SDS011;13927;51.534;11.866;2022-10-16T14:33:54;1.92;;;0.73;;
26181;SDS011;13927;51.534;11.866;2022-10-16T14:36:21;0.73;;;0.60;;
26181;SDS011;13927;51.534;11.866;2022-10-16T14:38:51;0.70;;;0.60;;
26181;SDS011;13927;51.534;11.866;2022-10-16T14:41:48;0.55;;;0.47;;
26181;SDS011;13927;51.534;11.866;2022-10-16T14:44:17;1.55;;;0.43;;
26181;SDS011;13927;51.534;11.866;2022-10-16T14:46:44;1.48;;;0.40;;
26181;SDS011;13927;51.534;11.866;2022-10-16T14:49:13;0.63;;;0.50;;
26181;SDS011;13927;51.534;11.866;2022-10-16T14:51:43;0.38;;;0.38;;
26181;SDS011;13927;51.534;11.866;2022-10-16T14:54:11;1.08;;;0.50;;
26181;SDS011;13927;51.534;11.866;2022-10-16T14:59:38;1.70;;;0.40;;
26181;SDS011;13927;51.534;11.866;2022-10-16T15:02:48;1.50;;;0.47;;
26181;SDS011;13927;51.534;11.866;2022-10-16T15:04:57;0.40;;;0.40;;
26181;SDS011;13927;51.534;11.866;2022-10-16T15:07:35;0.50;;;0.40;;
26181;SDS011;13927;51.534;11.866;2022-10-16T15:10:01;0.80;;;0.40;;
26181;SDS011;13927;51.534;11.866;2022-10-16T15:12:28;2.92;;;0.70;;
26181;SDS011;13927;51.534;11.866;2022-10-16T15:14:54;0.40;;;0.40;;
26181;SDS011;13927;51.534;11.866;2022-10-16T15:17:19;1.13;;;0.40;;
26181;SDS011;13927;51.534;11.866;2022-10-16T15:19:45;0.82;;;0.40;;
26181;SDS011;13927;51.534;11.866;2022-10-16T15:22:11;0.80;;;0.50;;
26181;SDS011;13927;51.534;11.866;2022-10-16T15:24:37;3.13;;;0.50;;
26181;SDS011;13927;51.534;11.866;2022-10-16T15:27:03;0.70;;;0.40;;
26181;SDS011;13927;51.534;11.866;2022-10-16T15:29:29;2.08;;;0.40;;
26181;SDS011;13927;51.534;11.866;2022-10-16T15:31:55;0.50;;;0.40;;
26181;SDS011;13927;51.534;11.866;2022-10-16T15:34:21;2.58;;;1.10;;
26181;SDS011;13927;51.534;11.866;2022-10-16T15:36:47;0.80;;;0.60;;
26181;SDS011;13927;51.534;11.866;2022-10-16T15:39:14;1.00;;;0.55;;
26181;SDS011;13927;51.534;11.866;2022-10-16T15:41:42;0.60;;;0.50;;
26181;SDS011;13927;51.534;11.866;2022-10-16T15:44:10;2.10;;;0.80;;
26181;SDS011;13927;51.534;11.866;2022-10-16T15:46:36;1.02;;;0.60;;
26181;SDS011;13927;51.534;11.866;2022-10-16T15:49:02;0.47;;;0.43;;
26181;SDS011;13927;51.534;11.866;2022-10-16T15:51:28;0.50;;;0.40;;
26181;SDS011;13927;51.534;11.866;2022-10-16T15:53:58;0.57;;;0.43;;
26181;SDS011;13927;51.534;11.866;2022-10-16T15:56:26;1.65;;;0.60;;
26181;SDS011;13927;51.534;11.866;2022-10-16T15:58:53;0.73;;;0.40;;
26181;SDS011;13927;51.534;11.866;2022-10-16T16:01:20;0.63;;;0.40;;
26181;SDS011;13927;51.534;11.866;2022-10-16T16:03:46;4.18;;;0.82;;
26181;SDS011;13927;51.534;11.866;2022-10-16T16:06:13;5.03;;;0.82;;
26181;SDS011;13927;51.534;11.866;2022-10-16T16:08:39;5.57;;;0.85;;
26181;SDS011;13927;51.534;11.866;2022-10-16T16:13:34;3.05;;;0.70;;
26181;SDS011;13927;51.534;11.866;2022-10-16T16:16:02;2.08;;;0.80;;
26181;SDS011;13927;51.534;11.866;2022-10-16T16:18:32;0.80;;;0.57;;
26181;SDS011;13927;51.534;11.866;2022-10-16T16:20:58;1.33;;;0.55;;
26181;SDS011;13927;51.534;11.866;2022-10-16T16:23:24;1.08;;;0.40;;
26181;SDS011;13927;51.534;11.866;2022-10-16T16:26:03;2.50;;;0.80;;
26181;SDS011;13927;51.534;11.866;2022-10-16T16:28:34;1.63;;;0.68;;
26181;SDS011;13927;51.534;11.866;2022-10-16T16:31:00;0.85;;;0.70;;
26181;SDS011;13927;51.534;11.866;2022-10-16T16:33:27;1.77;;;0.98;;
26181;SDS011;13927;51.534;11.866;2022-10-16T16:35:57;2.15;;;1.30;;
26181;SDS011;13927;51.534;11.866;2022-10-16T16:38:24;2.55;;;1.73;;
26181;SDS011;13927;51.534;11.866;2022-10-16T16:40:51;1.50;;;1.10;;
26181;SDS011;13927;51.534;11.866;2022-10-16T16:43:17;2.17;;;1.02;;
26181;SDS011;13927;51.534;11.866;2022-10-16T16:45:44;4.60;;;1.95;;
26181;SDS011;13927;51.534;11.866;2022-10-16T16:48:09;4.88;;;3.80;;
26181;SDS011;13927;51.534;11.866;2022-10-16T16:50:38;5.70;;;4.25;;
26181;SDS011;13927;51.534;11.866;2022-10-16T16:53:04;6.15;;;3.35;;
26181;SDS011;13927;51.534;11.866;2022-10-16T16:55:29;10.40;;;5.47;;
26181;SDS011;13927;51.534;11.866;2022-10-16T16:57:55;10.60;;;8.50;;
26181;SDS011;13927;51.534;11.866;2022-10-16T17:00:24;13.73;;;12.32;;
26181;SDS011;13927;51.534;11.866;2022-10-16T17:02:50;10.90;;;7.00;;